Rechercher aéroport 
image banner adimage banner adimage banner ad
image banner ad

KSMF - Sacramento Intl

Situé à Sacramento, United States

ICAO - SMF, IATA - SMF

Données fournies par Airmate  

Information générale

Coordonnées: N38°41'44" W121°35'27"
Élévation : 27 feet MSL.
Variation magnétique : 13° East
Voir autres Aéroports à California

Données opérationnelles

Special qualification required
Heure actuelle UTC:
Heure actuelle locale:
Météo
METAR: KSMF 260953Z 16012KT 10SM CLR 14/10 A2992 RMK AO2 SLP132 T01390100
TAF: KSMF 260537Z 2606/2706 17010KT P6SM SKC FM260900 15008KT P6SM SCT250 FM261300 15012KT P6SM OVC010 FM261800 18007KT P6SM SKC FM270100 18014KT P6SM SCT250
Voir NOTAMs / SUP AIP / TFR affectant cet aéroport [VIEW]
Fréquences de communication: [VIEW]

Pistes:

Identifiant RWYQFULongueur (ft)Largeur (ft)SurfaceLDA (ft)
17L181°8605150CONC8605
35R8605150CONC8605
17R181°8598150CONC8598
35L8598150CONC8598

Coordonnées de l'aéroport

Adresse: Sacramento United States

Vue satellite de KSMF